createdAt,value
2023-11-28T00:02:04.612Z,3.53
2023-11-28T00:04:33.370Z,3.78
2023-11-28T00:07:01.688Z,3.30
2023-11-28T00:09:29.991Z,3.42
2023-11-28T00:11:59.831Z,3.35
2023-11-28T00:14:28.101Z,2.95
2023-11-28T00:16:56.440Z,2.65
2023-11-28T00:19:26.273Z,3.15
2023-11-28T00:21:54.666Z,3.13
2023-11-28T00:24:22.969Z,3.15
2023-11-28T00:26:51.310Z,3.42
2023-11-28T00:29:21.013Z,3.15
2023-11-28T00:31:49.460Z,2.92
2023-11-28T00:34:17.834Z,3.22
2023-11-28T00:36:46.200Z,3.45
2023-11-28T00:39:14.731Z,3.35
2023-11-28T00:41:43.078Z,3.03
2023-11-28T00:44:11.844Z,2.78
2023-11-28T00:46:42.814Z,2.90
2023-11-28T00:49:14.175Z,2.83
2023-11-28T00:51:45.128Z,2.78
2023-11-28T00:54:13.839Z,2.63
2023-11-28T00:56:42.125Z,2.83
2023-11-28T00:59:10.443Z,2.70
2023-11-28T01:01:38.842Z,2.75
2023-11-28T01:04:08.757Z,3.22
2023-11-28T01:06:37.283Z,3.00
2023-11-28T01:09:06.585Z,3.20
2023-11-28T01:11:34.836Z,3.33
2023-11-28T01:14:03.472Z,2.97
2023-11-28T01:16:31.924Z,3.47
2023-11-28T01:19:00.243Z,3.70
2023-11-28T01:21:29.890Z,3.63
2023-11-28T01:23:58.213Z,3.53
2023-11-28T01:26:26.485Z,3.65
2023-11-28T01:28:55.002Z,3.88
2023-11-28T01:31:25.945Z,4.07
2023-11-28T01:33:54.337Z,4.40
2023-11-28T01:36:22.794Z,4.28
2023-11-28T01:38:52.491Z,4.15
2023-11-28T01:41:20.772Z,4.10
2023-11-28T01:43:49.100Z,4.03
2023-11-28T01:46:17.821Z,4.18
2023-11-28T01:48:46.228Z,3.65
2023-11-28T01:51:14.890Z,4.22
2023-11-28T01:53:43.358Z,3.47
2023-11-28T01:56:13.814Z,3.28
2023-11-28T01:58:42.723Z,2.90
2023-11-28T02:01:12.206Z,2.90
2023-11-28T02:03:43.017Z,3.00
2023-11-28T02:06:11.666Z,2.70
2023-11-28T02:08:39.938Z,2.90
2023-11-28T02:11:08.575Z,3.08
2023-11-28T02:13:38.407Z,2.90
2023-11-28T02:16:12.333Z,2.63
2023-11-28T02:18:40.844Z,2.45
2023-11-28T02:21:10.165Z,2.35
2023-11-28T02:23:38.557Z,2.95
2023-11-28T02:26:23.236Z,2.30
2023-11-28T02:28:51.623Z,2.28
2023-11-28T02:31:19.973Z,2.88
2023-11-28T02:33:48.461Z,2.80
2023-11-28T02:36:17.050Z,2.63
2023-11-28T02:38:45.538Z,3.17
2023-11-28T02:41:13.918Z,2.38
2023-11-28T02:43:43.835Z,2.53
2023-11-28T02:46:12.214Z,2.83
2023-11-28T02:48:41.974Z,2.13
2023-11-28T02:51:12.456Z,3.03
2023-11-28T02:53:41.060Z,2.90
2023-11-28T02:56:12.897Z,2.90
2023-11-28T02:58:41.196Z,3.17
2023-11-28T03:01:11.198Z,2.78
2023-11-28T03:03:39.788Z,2.70
2023-11-28T03:06:09.065Z,2.40
2023-11-28T03:08:37.510Z,2.15
2023-11-28T03:11:06.209Z,2.97
2023-11-28T03:13:34.529Z,2.20
2023-11-28T03:16:04.169Z,2.15
2023-11-28T03:18:34.069Z,2.33
2023-11-28T03:21:02.729Z,2.10
2023-11-28T03:23:31.306Z,2.55
2023-11-28T03:25:59.889Z,2.33
2023-11-28T03:28:28.256Z,2.38
2023-11-28T03:30:56.730Z,2.67
2023-11-28T03:33:25.204Z,2.30
2023-11-28T03:35:55.107Z,2.60
2023-11-28T03:38:23.399Z,2.53
2023-11-28T03:40:51.812Z,2.30
2023-11-28T03:43:20.109Z,2.53
2023-11-28T03:45:48.595Z,2.20
2023-11-28T03:48:16.866Z,2.33
2023-11-28T03:50:45.154Z,2.72
2023-11-28T03:53:14.868Z,2.53
2023-11-28T03:55:43.590Z,2.55
2023-11-28T03:58:11.934Z,2.60
2023-11-28T04:00:40.237Z,3.13
2023-11-28T04:03:08.700Z,2.40
2023-11-28T04:05:37.026Z,2.63
2023-11-28T04:08:05.745Z,2.40
2023-11-28T04:10:35.466Z,2.40
2023-11-28T04:13:04.055Z,2.65
2023-11-28T04:15:32.370Z,2.38
2023-11-28T04:18:00.838Z,2.70
2023-11-28T04:20:32.347Z,2.50
2023-11-28T04:23:00.734Z,3.00
2023-11-28T04:25:29.246Z,2.90
2023-11-28T04:27:59.082Z,3.15
2023-11-28T04:30:27.437Z,3.75
2023-11-28T04:32:55.803Z,3.50
2023-11-28T04:35:24.114Z,3.20
2023-11-28T04:37:52.514Z,3.10
2023-11-28T04:40:20.906Z,2.60
2023-11-28T04:42:49.230Z,3.00
2023-11-28T04:45:18.923Z,3.22
2023-11-28T04:47:47.286Z,3.33
2023-11-28T04:50:15.673Z,3.15
2023-11-28T04:52:44.009Z,3.70
2023-11-28T04:55:12.263Z,2.88
2023-11-28T04:57:41.131Z,3.20
2023-11-28T05:00:10.922Z,3.20
2023-11-28T05:02:40.694Z,3.20
2023-11-28T05:05:09.845Z,3.47
2023-11-28T05:07:39.126Z,3.35
2023-11-28T05:10:08.646Z,4.10
2023-11-28T05:12:37.332Z,3.47
2023-11-28T05:15:06.114Z,3.55
2023-11-28T05:17:34.445Z,3.40
2023-11-28T05:20:05.929Z,3.88
2023-11-28T05:22:34.252Z,3.80
2023-11-28T05:25:02.582Z,3.42
2023-11-28T05:27:30.909Z,2.90
2023-11-28T05:29:59.778Z,3.60
2023-11-28T05:32:28.099Z,2.92
2023-11-28T05:34:56.534Z,2.50
2023-11-28T05:37:26.424Z,2.67
2023-11-28T05:39:54.761Z,1.50
2023-11-28T05:42:23.258Z,2.15
2023-11-28T05:44:51.528Z,2.05
2023-11-28T05:47:20.746Z,2.17
2023-11-28T05:49:49.268Z,2.53
2023-11-28T05:52:17.702Z,2.50
2023-11-28T05:54:47.612Z,2.63
2023-11-28T05:57:15.959Z,1.60
2023-11-28T05:59:44.235Z,2.08
2023-11-28T06:02:12.782Z,2.20
2023-11-28T06:04:41.737Z,2.25
2023-11-28T06:07:10.096Z,2.60
2023-11-28T06:09:38.447Z,2.67
2023-11-28T06:12:09.031Z,2.33
2023-11-28T06:14:38.793Z,2.28
2023-11-28T06:17:07.405Z,2.85
2023-11-28T06:19:35.882Z,2.70
2023-11-28T06:22:04.566Z,2.95
2023-11-28T06:24:32.949Z,3.22
2023-11-28T06:27:01.380Z,2.83
2023-11-28T06:29:31.042Z,3.35
2023-11-28T06:32:00.515Z,2.78
2023-11-28T06:34:28.817Z,3.10
2023-11-28T06:36:57.193Z,3.40
2023-11-28T06:39:25.793Z,2.50
2023-11-28T06:41:54.170Z,2.90
2023-11-28T06:44:22.563Z,2.75
2023-11-28T06:46:52.312Z,2.03
2023-11-28T06:49:21.441Z,2.35
2023-11-28T06:51:49.935Z,2.30
2023-11-28T06:54:18.395Z,1.13
2023-11-28T06:56:46.762Z,1.13
2023-11-28T06:59:15.183Z,0.32
2023-11-28T07:01:43.616Z,0.20
2023-11-28T07:04:13.389Z,0.70
2023-11-28T07:06:41.684Z,0.60
2023-11-28T07:09:10.079Z,0.50
2023-11-28T07:11:38.744Z,0.55
2023-11-28T07:14:07.466Z,0.57
2023-11-28T07:16:36.883Z,0.77
2023-11-28T07:19:06.117Z,0.60
2023-11-28T07:21:36.120Z,0.82
2023-11-28T07:24:04.589Z,0.90
2023-11-28T07:26:32.911Z,0.90
2023-11-28T07:29:01.595Z,0.80
2023-11-28T07:31:30.962Z,1.00
2023-11-28T07:33:59.437Z,0.70
2023-11-28T07:36:27.770Z,0.70
2023-11-28T07:38:57.445Z,0.65
2023-11-28T07:41:25.765Z,1.13
2023-11-28T07:43:54.656Z,1.00
2023-11-28T07:46:24.754Z,0.65
2023-11-28T07:48:53.170Z,1.30
2023-11-28T07:51:21.624Z,0.90
2023-11-28T07:53:49.955Z,0.52
2023-11-28T07:56:20.033Z,0.68
2023-11-28T07:58:48.394Z,0.70
2023-11-28T08:01:17.234Z,1.05
2023-11-28T08:03:46.047Z,0.77
2023-11-28T08:06:18.860Z,1.10
2023-11-28T08:08:47.568Z,0.50
2023-11-28T08:11:16.137Z,0.95
2023-11-28T08:13:45.878Z,0.90
2023-11-28T08:16:14.299Z,0.80
2023-11-28T08:18:43.529Z,1.00
2023-11-28T08:21:12.502Z,1.05
2023-11-28T08:23:40.808Z,0.85
2023-11-28T08:26:09.860Z,1.00
2023-11-28T08:28:38.388Z,0.60
2023-11-28T08:31:10.559Z,0.65
2023-11-28T08:33:39.262Z,0.60
2023-11-28T08:36:08.499Z,0.95
2023-11-28T08:38:36.826Z,0.80
2023-11-28T08:41:05.772Z,1.00
2023-11-28T08:43:34.389Z,0.80
2023-11-28T08:46:02.999Z,0.90
2023-11-28T08:48:33.170Z,0.90
2023-11-28T08:51:02.153Z,0.85
2023-11-28T08:53:30.490Z,0.68
2023-11-28T08:55:59.311Z,0.68
2023-11-28T08:58:27.877Z,0.50
2023-11-28T09:00:56.204Z,0.40
2023-11-28T09:03:25.424Z,0.70
2023-11-28T09:05:55.286Z,0.55
2023-11-28T09:08:24.615Z,0.43
2023-11-28T09:10:53.174Z,0.50
2023-11-28T09:13:22.321Z,0.30
2023-11-28T09:15:50.621Z,0.50
2023-11-28T09:18:19.317Z,0.30
2023-11-28T09:20:48.668Z,0.30
2023-11-28T09:23:19.456Z,0.50
2023-11-28T09:25:52.929Z,0.60
2023-11-28T09:28:28.611Z,0.40
2023-11-28T09:30:57.178Z,0.20
2023-11-28T09:33:25.718Z,0.30
2023-11-28T09:35:54.520Z,0.40
2023-11-28T09:38:24.385Z,0.20
2023-11-28T09:40:53.068Z,0.15
2023-11-28T09:43:26.672Z,0.00
2023-11-28T09:45:59.073Z,0.10
2023-11-28T09:48:29.581Z,0.30
2023-11-28T09:51:00.343Z,0.15
2023-11-28T09:53:31.379Z,0.20
2023-11-28T09:56:02.951Z,0.22
2023-11-28T09:58:33.141Z,0.20
2023-11-28T10:01:05.204Z,0.20
2023-11-28T10:03:33.713Z,0.20
2023-11-28T10:06:04.154Z,0.20
2023-11-28T10:08:35.626Z,0.10
2023-11-28T10:11:06.430Z,0.10
2023-11-28T10:13:34.772Z,0.10
2023-11-28T10:16:03.923Z,0.10
2023-11-28T10:18:33.525Z,0.00
2023-11-28T10:21:02.138Z,0.10
2023-11-28T10:23:30.820Z,0.22
2023-11-28T10:26:02.034Z,0.30
2023-11-28T10:28:30.383Z,0.60
2023-11-28T10:30:58.867Z,0.40
2023-11-28T10:33:28.120Z,0.40
2023-11-28T10:35:56.405Z,0.32
2023-11-28T10:38:24.779Z,0.20
2023-11-28T10:40:54.859Z,0.20
2023-11-28T10:43:24.769Z,0.40
2023-11-28T10:45:54.054Z,0.40
2023-11-28T10:48:22.410Z,0.30
2023-11-28T10:50:51.423Z,0.20
2023-11-28T10:53:20.601Z,0.30
2023-11-28T10:55:53.090Z,0.50
2023-11-28T10:58:24.271Z,0.50
2023-11-28T11:00:54.522Z,0.55
2023-11-28T11:03:24.407Z,0.50
2023-11-28T11:05:53.380Z,0.40
2023-11-28T11:08:23.287Z,0.60
2023-11-28T11:10:52.766Z,0.80
2023-11-28T11:13:33.323Z,0.30
2023-11-28T11:16:10.913Z,0.32
2023-11-28T11:18:42.412Z,0.30
2023-11-28T11:21:18.535Z,0.40
2023-11-28T11:23:49.708Z,0.30
2023-11-28T11:26:18.354Z,0.50
2023-11-28T11:28:48.225Z,0.22
2023-11-28T11:31:17.636Z,0.25
2023-11-28T11:33:45.980Z,0.30
2023-11-28T11:36:16.638Z,0.30
2023-11-28T11:38:49.035Z,0.20
2023-11-28T11:41:19.058Z,0.22
2023-11-28T11:43:48.910Z,0.20
2023-11-28T11:46:30.007Z,0.20
2023-11-28T11:48:59.818Z,0.38
2023-11-28T11:51:28.924Z,0.40
2023-11-28T11:53:57.529Z,0.40
2023-11-28T11:56:27.842Z,0.52
2023-11-28T11:58:58.154Z,0.35
2023-11-28T12:01:30.115Z,0.30
2023-11-28T12:04:02.085Z,0.22
2023-11-28T12:06:30.506Z,0.20
2023-11-28T12:09:01.307Z,0.40
2023-11-28T12:11:29.778Z,0.30
2023-11-28T12:14:01.805Z,0.30
2023-11-28T12:16:32.440Z,0.22
2023-11-28T12:19:02.046Z,0.20
2023-11-28T12:21:31.621Z,0.30
2023-11-28T12:24:00.299Z,0.52
2023-11-28T12:26:28.788Z,0.50
2023-11-28T12:28:59.666Z,0.50
2023-11-28T12:31:28.048Z,0.45
2023-11-28T12:33:56.600Z,0.50
2023-11-28T12:36:26.773Z,0.50
2023-11-28T12:38:59.088Z,0.50
2023-11-28T12:41:36.174Z,0.35
2023-11-28T12:44:09.351Z,0.40
2023-11-28T12:46:40.395Z,0.40
2023-11-28T12:49:10.350Z,0.40
2023-11-28T12:51:39.499Z,0.43
2023-11-28T12:54:08.906Z,0.55
2023-11-28T12:56:38.423Z,0.40
2023-11-28T12:59:08.254Z,0.70
2023-11-28T13:01:36.858Z,0.50
2023-11-28T13:04:05.876Z,0.60
2023-11-28T13:06:47.458Z,0.50
2023-11-28T13:09:22.561Z,0.52
2023-11-28T13:11:50.979Z,0.65
2023-11-28T13:14:21.031Z,0.60
2023-11-28T13:16:56.490Z,0.50
2023-11-28T13:19:32.761Z,0.60
2023-11-28T13:22:01.181Z,0.60
2023-11-28T13:24:29.413Z,0.68
2023-11-28T13:26:57.971Z,0.60
2023-11-28T13:29:27.770Z,0.60
2023-11-28T13:31:57.333Z,0.85
2023-11-28T13:34:25.786Z,0.82
2023-11-28T13:36:54.103Z,1.00
2023-11-28T13:39:24.567Z,0.90
2023-11-28T13:41:55.544Z,0.90
2023-11-28T13:44:23.958Z,1.10
2023-11-28T13:46:54.238Z,1.50
2023-11-28T13:49:22.528Z,2.10
2023-11-28T13:51:51.229Z,2.50
2023-11-28T13:54:19.661Z,2.17
2023-11-28T13:56:48.268Z,2.25
2023-11-28T13:59:19.987Z,2.30
2023-11-28T14:01:48.734Z,2.10
2023-11-28T14:04:18.624Z,2.08
2023-11-28T14:06:46.944Z,2.47
2023-11-28T14:09:17.104Z,1.20
2023-11-28T14:11:45.418Z,1.30
2023-11-28T14:14:16.699Z,1.67
2023-11-28T14:16:46.738Z,1.90
2023-11-28T14:19:15.012Z,1.88
2023-11-28T14:21:44.805Z,1.50
2023-11-28T14:24:13.169Z,1.38
2023-11-28T14:26:41.495Z,1.58
2023-11-28T14:29:09.797Z,1.45
2023-11-28T14:31:38.564Z,1.45
2023-11-28T14:34:06.823Z,1.42
2023-11-28T14:36:35.131Z,1.52
2023-11-28T14:39:05.388Z,2.33
2023-11-28T14:41:34.137Z,1.77
2023-11-28T14:44:02.924Z,1.73
2023-11-28T14:46:32.418Z,2.00
2023-11-28T14:49:04.168Z,2.20
2023-11-28T14:54:01.261Z,2.30
2023-11-28T14:56:31.158Z,2.40
2023-11-28T14:58:59.590Z,2.55
2023-11-28T15:01:28.038Z,2.70
2023-11-28T15:03:56.480Z,2.85
2023-11-28T15:06:26.417Z,3.50
2023-11-28T15:08:54.924Z,2.70
2023-11-28T15:11:24.597Z,2.30
2023-11-28T15:13:54.296Z,2.20
2023-11-28T15:16:22.839Z,2.10
2023-11-28T15:18:53.234Z,2.47
2023-11-28T15:21:21.645Z,2.60
2023-11-28T15:23:50.039Z,3.50
2023-11-28T15:26:18.493Z,3.30
2023-11-28T15:28:46.763Z,2.33
2023-11-28T15:31:16.581Z,2.70
2023-11-28T15:33:44.914Z,2.40
2023-11-28T15:36:14.428Z,2.25
2023-11-28T15:38:42.913Z,2.38
2023-11-28T15:41:11.334Z,1.73
2023-11-28T15:43:39.738Z,2.40
2023-11-28T15:46:08.066Z,1.87
2023-11-28T15:48:38.261Z,2.00
2023-11-28T15:51:08.228Z,2.13
2023-11-28T15:53:37.785Z,1.50
2023-11-28T15:56:06.971Z,1.63
2023-11-28T15:58:35.226Z,2.03
2023-11-28T16:01:03.648Z,2.40
2023-11-28T16:03:32.162Z,1.80
2023-11-28T16:06:03.005Z,2.23
2023-11-28T16:08:30.511Z,2.10
2023-11-28T16:10:58.885Z,2.03
2023-11-28T16:13:27.185Z,1.80
2023-11-28T16:15:55.528Z,1.90
2023-11-28T16:18:23.871Z,1.97
2023-11-28T16:20:52.204Z,2.10
2023-11-28T16:23:22.037Z,3.43
2023-11-28T16:25:55.256Z,3.20
2023-11-28T16:28:23.751Z,3.30
2023-11-28T16:30:52.203Z,3.23
2023-11-28T16:33:20.597Z,4.40
2023-11-28T16:35:48.989Z,4.83
2023-11-28T16:38:19.528Z,6.20
2023-11-28T16:40:50.205Z,5.78
2023-11-28T16:43:18.496Z,5.30
2023-11-28T16:45:46.804Z,3.25
2023-11-28T16:48:18.340Z,5.32
2023-11-28T16:53:15.110Z,3.22
2023-11-28T16:55:45.472Z,4.18
2023-11-28T16:58:15.142Z,4.63
2023-11-28T17:00:43.581Z,4.88
2023-11-28T17:03:11.933Z,3.90
2023-11-28T17:05:40.328Z,4.07
2023-11-28T17:08:08.729Z,3.40
2023-11-28T17:10:37.270Z,2.78
2023-11-28T17:13:05.726Z,3.17
2023-11-28T17:15:35.447Z,2.60
2023-11-28T17:18:03.922Z,2.80
2023-11-28T17:20:32.411Z,2.58
2023-11-28T17:23:01.482Z,2.30
2023-11-28T17:25:30.008Z,2.50
2023-11-28T17:27:58.441Z,2.78
2023-11-28T17:30:26.758Z,3.00
2023-11-28T17:32:56.517Z,3.58
2023-11-28T17:35:24.983Z,3.20
2023-11-28T17:37:53.386Z,3.15
2023-11-28T17:40:23.241Z,3.78
2023-11-28T17:42:51.847Z,3.25
2023-11-28T17:45:20.791Z,3.55
2023-11-28T17:50:20.492Z,3.75
2023-11-28T17:52:49.311Z,3.40
2023-11-28T17:55:17.965Z,3.40
2023-11-28T17:57:46.280Z,3.60
2023-11-28T18:00:15.159Z,16.05
2023-11-28T18:02:43.562Z,20.33
2023-11-28T18:05:18.296Z,12.85
2023-11-28T18:07:49.254Z,6.32
2023-11-28T18:10:17.776Z,5.97
2023-11-28T18:12:46.093Z,5.28
2023-11-28T18:15:26.024Z,5.38
2023-11-28T18:18:00.857Z,4.55
2023-11-28T18:20:29.525Z,4.72
2023-11-28T18:22:59.514Z,4.70
2023-11-28T18:25:27.883Z,3.85
2023-11-28T18:27:57.159Z,3.30
2023-11-28T18:30:26.886Z,3.50
2023-11-28T18:32:55.345Z,2.83
2023-11-28T18:35:23.842Z,2.88
2023-11-28T18:37:52.231Z,3.20
2023-11-28T18:40:22.316Z,3.10
2023-11-28T18:42:50.689Z,3.10
2023-11-28T18:45:19.520Z,3.25
2023-11-28T18:47:47.981Z,3.20
2023-11-28T18:50:16.966Z,2.85
2023-11-28T18:52:45.380Z,3.08
2023-11-28T18:55:13.662Z,2.88
2023-11-28T18:57:43.380Z,3.10
2023-11-28T19:00:13.574Z,3.38
2023-11-28T19:02:42.118Z,3.85
2023-11-28T19:05:10.898Z,3.35
2023-11-28T19:07:39.196Z,3.53
2023-11-28T19:10:08.416Z,3.17
2023-11-28T19:12:36.958Z,3.78
2023-11-28T19:15:07.477Z,3.42
2023-11-28T19:17:36.276Z,3.63
2023-11-28T19:20:06.470Z,3.72
2023-11-28T19:22:34.857Z,3.80
2023-11-28T19:25:03.155Z,3.70
2023-11-28T19:27:31.516Z,4.63
2023-11-28T19:29:59.847Z,4.10
2023-11-28T19:32:29.765Z,4.30
2023-11-28T19:34:58.099Z,4.10
2023-11-28T19:37:27.037Z,3.10
2023-11-28T19:39:55.349Z,4.28
2023-11-28T19:42:23.733Z,4.90
2023-11-28T19:44:52.048Z,4.35
2023-11-28T19:47:21.013Z,4.55
2023-11-28T19:49:50.836Z,4.38
2023-11-28T19:52:19.353Z,4.10
2023-11-28T19:54:47.925Z,4.10
2023-11-28T19:57:16.233Z,4.00
2023-11-28T19:59:45.265Z,3.80
2023-11-28T20:02:13.840Z,4.68
2023-11-28T20:04:44.270Z,4.72
2023-11-28T20:07:13.960Z,4.40
2023-11-28T20:09:42.258Z,4.63
2023-11-28T20:12:10.636Z,4.20
2023-11-28T20:14:39.540Z,4.80
2023-11-28T20:17:12.233Z,5.15
2023-11-28T20:19:41.306Z,5.47
2023-11-28T20:22:09.734Z,5.03
2023-11-28T20:24:39.480Z,5.20
2023-11-28T20:27:07.980Z,4.82
2023-11-28T20:29:37.514Z,5.72
2023-11-28T20:32:11.473Z,5.68
2023-11-28T20:34:39.948Z,6.00
2023-11-28T20:37:18.513Z,5.70
2023-11-28T20:39:49.332Z,5.90
2023-11-28T20:42:17.712Z,6.32
2023-11-28T20:44:46.399Z,6.38
2023-11-28T20:47:14.735Z,5.35
2023-11-28T20:49:43.276Z,4.95
2023-11-28T20:52:11.691Z,4.78
2023-11-28T20:54:40.118Z,4.68
2023-11-28T20:57:09.845Z,5.00
2023-11-28T20:59:38.825Z,5.22
2023-11-28T21:02:08.311Z,5.22
2023-11-28T21:04:36.732Z,5.20
2023-11-28T21:07:05.444Z,4.75
2023-11-28T21:09:33.792Z,4.25
2023-11-28T21:12:02.050Z,4.32
2023-11-28T21:14:32.477Z,5.05
2023-11-28T21:17:01.874Z,5.07
2023-11-28T21:19:30.233Z,6.50
2023-11-28T21:21:58.601Z,7.18
2023-11-28T21:24:26.872Z,7.07
2023-11-28T21:26:55.245Z,8.32
2023-11-28T21:29:25.976Z,7.07
2023-11-28T21:31:55.831Z,9.02
2023-11-28T21:34:24.111Z,7.90
2023-11-28T21:36:52.723Z,6.00
2023-11-28T21:39:21.380Z,5.15
2023-11-28T21:41:51.816Z,5.30
2023-11-28T21:44:21.036Z,5.40
2023-11-28T21:46:51.602Z,5.50
2023-11-28T21:49:21.416Z,5.47
2023-11-28T21:51:49.973Z,5.40
2023-11-28T21:54:18.572Z,6.00
2023-11-28T21:56:46.917Z,5.15
2023-11-28T21:59:15.513Z,5.82
2023-11-28T22:01:43.919Z,5.40
2023-11-28T22:04:12.525Z,5.60
2023-11-28T22:06:44.382Z,5.93
2023-11-28T22:09:13.735Z,6.18
2023-11-28T22:11:42.347Z,5.93
2023-11-28T22:14:10.658Z,5.70
2023-11-28T22:16:42.217Z,5.43
2023-11-28T22:19:10.724Z,5.47
2023-11-28T22:21:39.625Z,5.85
2023-11-28T22:24:10.973Z,6.03
2023-11-28T22:26:43.029Z,5.47
2023-11-28T22:29:15.215Z,6.00
2023-11-28T22:31:43.827Z,5.28
2023-11-28T22:34:12.326Z,5.85
2023-11-28T22:36:40.736Z,5.70
2023-11-28T22:39:11.279Z,5.55
2023-11-28T22:41:39.526Z,5.00
2023-11-28T22:44:08.212Z,5.47
2023-11-28T22:46:36.607Z,5.53
2023-11-28T22:49:04.970Z,5.50
2023-11-28T22:51:34.811Z,5.32
2023-11-28T22:54:03.287Z,5.43
2023-11-28T22:56:32.948Z,4.80
2023-11-28T22:59:01.282Z,5.15
2023-11-28T23:01:29.619Z,5.30
2023-11-28T23:03:59.746Z,5.72
2023-11-28T23:06:29.236Z,6.43
2023-11-28T23:09:00.406Z,6.30
2023-11-28T23:11:28.983Z,6.80
2023-11-28T23:13:58.778Z,6.32
2023-11-28T23:16:27.070Z,5.57
2023-11-28T23:18:55.437Z,5.93
2023-11-28T23:21:23.910Z,5.72
2023-11-28T23:23:52.270Z,5.25
2023-11-28T23:26:20.636Z,5.63
2023-11-28T23:28:49.000Z,5.68
2023-11-28T23:31:18.963Z,6.03
2023-11-28T23:33:47.918Z,5.72
2023-11-28T23:36:16.204Z,5.50
2023-11-28T23:38:44.613Z,6.38
2023-11-28T23:41:12.992Z,5.78
2023-11-28T23:43:41.339Z,6.13
2023-11-28T23:46:09.670Z,5.30
2023-11-28T23:48:39.364Z,6.03
2023-11-28T23:51:08.069Z,5.97
2023-11-28T23:53:36.488Z,5.60
2023-11-28T23:56:05.237Z,5.80
2023-11-28T23:58:33.617Z,5.30
